sensor_id;sensor_type;location;lat;lon;timestamp;temperature;humidity
22645;DHT22;11489;50.834;6.752;2023-05-29T00:00:07;16.00;54.70
22645;DHT22;11489;50.834;6.752;2023-05-29T00:02:34;15.90;54.80
22645;DHT22;11489;50.834;6.752;2023-05-29T00:05:00;15.80;55.00
22645;DHT22;11489;50.834;6.752;2023-05-29T00:07:32;15.70;55.10
22645;DHT22;11489;50.834;6.752;2023-05-29T00:10:00;15.70;55.40
22645;DHT22;11489;50.834;6.752;2023-05-29T00:12:26;15.60;55.40
22645;DHT22;11489;50.834;6.752;2023-05-29T00:14:51;15.50;55.40
22645;DHT22;11489;50.834;6.752;2023-05-29T00:17:17;15.50;55.70
22645;DHT22;11489;50.834;6.752;2023-05-29T00:19:43;15.40;55.80
22645;DHT22;11489;50.834;6.752;2023-05-29T00:22:09;15.40;56.00
22645;DHT22;11489;50.834;6.752;2023-05-29T00:24:35;15.30;56.30
22645;DHT22;11489;50.834;6.752;2023-05-29T00:27:01;15.30;56.50
22645;DHT22;11489;50.834;6.752;2023-05-29T00:29:27;15.20;56.40
22645;DHT22;11489;50.834;6.752;2023-05-29T00:31:53;15.10;56.50
22645;DHT22;11489;50.834;6.752;2023-05-29T00:34:19;15.00;56.40
22645;DHT22;11489;50.834;6.752;2023-05-29T00:36:45;15.00;56.50
22645;DHT22;11489;50.834;6.752;2023-05-29T00:39:12;15.00;57.10
22645;DHT22;11489;50.834;6.752;2023-05-29T00:41:38;14.90;57.20
22645;DHT22;11489;50.834;6.752;2023-05-29T00:44:03;14.90;57.10
22645;DHT22;11489;50.834;6.752;2023-05-29T00:46:30;14.80;57.30
22645;DHT22;11489;50.834;6.752;2023-05-29T00:48:59;14.80;57.50
22645;DHT22;11489;50.834;6.752;2023-05-29T00:51:26;14.70;57.60
22645;DHT22;11489;50.834;6.752;2023-05-29T00:53:52;14.70;57.50
22645;DHT22;11489;50.834;6.752;2023-05-29T00:56:19;14.60;57.90
22645;DHT22;11489;50.834;6.752;2023-05-29T00:58:48;14.60;57.90
22645;DHT22;11489;50.834;6.752;2023-05-29T01:01:15;14.60;58.00
22645;DHT22;11489;50.834;6.752;2023-05-29T01:03:42;14.50;58.60
22645;DHT22;11489;50.834;6.752;2023-05-29T01:06:08;14.40;58.00
22645;DHT22;11489;50.834;6.752;2023-05-29T01:08:35;14.40;58.20
22645;DHT22;11489;50.834;6.752;2023-05-29T01:11:12;14.40;58.00
22645;DHT22;11489;50.834;6.752;2023-05-29T01:13:42;14.40;58.70
22645;DHT22;11489;50.834;6.752;2023-05-29T01:16:30;14.30;58.50
22645;DHT22;11489;50.834;6.752;2023-05-29T01:22:13;14.20;59.30
22645;DHT22;11489;50.834;6.752;2023-05-29T01:25:09;14.20;59.00
22645;DHT22;11489;50.834;6.752;2023-05-29T01:27:37;14.10;58.70
22645;DHT22;11489;50.834;6.752;2023-05-29T01:30:06;14.00;58.30
22645;DHT22;11489;50.834;6.752;2023-05-29T01:32:33;14.00;58.70
22645;DHT22;11489;50.834;6.752;2023-05-29T01:34:59;13.90;58.60
22645;DHT22;11489;50.834;6.752;2023-05-29T01:37:25;13.80;58.70
22645;DHT22;11489;50.834;6.752;2023-05-29T01:39:53;13.70;58.70
22645;DHT22;11489;50.834;6.752;2023-05-29T01:42:19;13.70;59.00
22645;DHT22;11489;50.834;6.752;2023-05-29T01:44:45;13.60;59.10
22645;DHT22;11489;50.834;6.752;2023-05-29T01:47:12;13.60;59.10
22645;DHT22;11489;50.834;6.752;2023-05-29T01:49:39;13.50;59.30
22645;DHT22;11489;50.834;6.752;2023-05-29T01:52:05;13.50;59.30
22645;DHT22;11489;50.834;6.752;2023-05-29T01:54:31;13.40;59.30
22645;DHT22;11489;50.834;6.752;2023-05-29T01:56:57;13.30;59.50
22645;DHT22;11489;50.834;6.752;2023-05-29T01:59:24;13.30;59.60
22645;DHT22;11489;50.834;6.752;2023-05-29T02:01:50;13.20;59.60
22645;DHT22;11489;50.834;6.752;2023-05-29T02:04:15;13.20;59.40
22645;DHT22;11489;50.834;6.752;2023-05-29T02:06:41;13.10;60.10
22645;DHT22;11489;50.834;6.752;2023-05-29T02:09:07;13.10;59.80
22645;DHT22;11489;50.834;6.752;2023-05-29T02:11:32;13.00;59.60
22645;DHT22;11489;50.834;6.752;2023-05-29T02:13:58;13.00;59.70
22645;DHT22;11489;50.834;6.752;2023-05-29T02:16:27;12.90;59.90
22645;DHT22;11489;50.834;6.752;2023-05-29T02:18:53;12.90;59.80
22645;DHT22;11489;50.834;6.752;2023-05-29T02:21:18;12.80;59.90
22645;DHT22;11489;50.834;6.752;2023-05-29T02:23:44;12.80;59.90
22645;DHT22;11489;50.834;6.752;2023-05-29T02:26:12;12.80;59.90
22645;DHT22;11489;50.834;6.752;2023-05-29T02:28:38;12.70;60.00
22645;DHT22;11489;50.834;6.752;2023-05-29T02:31:04;12.70;60.00
22645;DHT22;11489;50.834;6.752;2023-05-29T02:33:30;12.70;60.20
22645;DHT22;11489;50.834;6.752;2023-05-29T02:35:55;12.60;60.10
22645;DHT22;11489;50.834;6.752;2023-05-29T02:38:21;12.60;60.40
22645;DHT22;11489;50.834;6.752;2023-05-29T02:40:47;12.60;60.20
22645;DHT22;11489;50.834;6.752;2023-05-29T02:43:13;12.50;60.20
22645;DHT22;11489;50.834;6.752;2023-05-29T02:45:39;12.50;60.30
22645;DHT22;11489;50.834;6.752;2023-05-29T02:48:05;12.50;60.50
22645;DHT22;11489;50.834;6.752;2023-05-29T02:50:31;12.40;60.50
22645;DHT22;11489;50.834;6.752;2023-05-29T02:52:57;12.40;60.70
22645;DHT22;11489;50.834;6.752;2023-05-29T02:55:22;12.40;60.80
22645;DHT22;11489;50.834;6.752;2023-05-29T02:57:48;12.40;60.90
22645;DHT22;11489;50.834;6.752;2023-05-29T03:00:18;12.40;60.90
22645;DHT22;11489;50.834;6.752;2023-05-29T03:02:44;12.30;61.00
22645;DHT22;11489;50.834;6.752;2023-05-29T03:05:09;12.30;61.10
22645;DHT22;11489;50.834;6.752;2023-05-29T03:07:35;12.30;61.20
22645;DHT22;11489;50.834;6.752;2023-05-29T03:10:01;12.30;61.30
22645;DHT22;11489;50.834;6.752;2023-05-29T03:12:29;12.20;61.40
22645;DHT22;11489;50.834;6.752;2023-05-29T03:14:55;12.20;61.50
22645;DHT22;11489;50.834;6.752;2023-05-29T03:17:21;12.20;61.60
22645;DHT22;11489;50.834;6.752;2023-05-29T03:19:47;12.10;61.70
22645;DHT22;11489;50.834;6.752;2023-05-29T03:22:13;12.10;61.80
22645;DHT22;11489;50.834;6.752;2023-05-29T03:24:38;12.10;61.90
22645;DHT22;11489;50.834;6.752;2023-05-29T03:27:04;12.10;61.90
22645;DHT22;11489;50.834;6.752;2023-05-29T03:29:33;12.00;62.00
22645;DHT22;11489;50.834;6.752;2023-05-29T03:31:58;12.00;62.50
22645;DHT22;11489;50.834;6.752;2023-05-29T03:34:24;12.00;62.40
22645;DHT22;11489;50.834;6.752;2023-05-29T03:36:50;11.90;62.40
22645;DHT22;11489;50.834;6.752;2023-05-29T03:39:16;11.90;62.50
22645;DHT22;11489;50.834;6.752;2023-05-29T03:41:42;11.90;62.70
22645;DHT22;11489;50.834;6.752;2023-05-29T03:44:07;11.90;62.90
22645;DHT22;11489;50.834;6.752;2023-05-29T03:46:33;11.90;63.00
22645;DHT22;11489;50.834;6.752;2023-05-29T03:48:59;11.80;63.20
22645;DHT22;11489;50.834;6.752;2023-05-29T03:51:25;11.80;63.30
22645;DHT22;11489;50.834;6.752;2023-05-29T03:53:50;11.80;63.30
22645;DHT22;11489;50.834;6.752;2023-05-29T03:56:16;11.80;63.20
22645;DHT22;11489;50.834;6.752;2023-05-29T03:58:42;11.80;63.30
22645;DHT22;11489;50.834;6.752;2023-05-29T04:01:07;11.80;63.80
22645;DHT22;11489;50.834;6.752;2023-05-29T04:03:34;11.80;63.70
22645;DHT22;11489;50.834;6.752;2023-05-29T04:06:00;11.80;64.10
22645;DHT22;11489;50.834;6.752;2023-05-29T04:08:26;11.90;64.40
22645;DHT22;11489;50.834;6.752;2023-05-29T04:10:52;11.90;64.50
22645;DHT22;11489;50.834;6.752;2023-05-29T04:13:20;12.00;64.80
22645;DHT22;11489;50.834;6.752;2023-05-29T04:15:46;12.10;64.90
22645;DHT22;11489;50.834;6.752;2023-05-29T04:18:11;12.20;65.00
22645;DHT22;11489;50.834;6.752;2023-05-29T04:20:37;12.30;65.00
22645;DHT22;11489;50.834;6.752;2023-05-29T04:23:03;12.50;65.10
22645;DHT22;11489;50.834;6.752;2023-05-29T04:25:29;12.60;65.00
22645;DHT22;11489;50.834;6.752;2023-05-29T04:27:55;12.80;64.90
22645;DHT22;11489;50.834;6.752;2023-05-29T04:30:21;12.80;64.50
22645;DHT22;11489;50.834;6.752;2023-05-29T04:32:46;12.90;64.10
22645;DHT22;11489;50.834;6.752;2023-05-29T04:35:12;12.90;63.60
22645;DHT22;11489;50.834;6.752;2023-05-29T04:37:38;12.80;63.40
22645;DHT22;11489;50.834;6.752;2023-05-29T04:40:05;12.80;63.40
22645;DHT22;11489;50.834;6.752;2023-05-29T04:42:35;12.80;63.30
22645;DHT22;11489;50.834;6.752;2023-05-29T04:45:02;12.70;63.20
22645;DHT22;11489;50.834;6.752;2023-05-29T04:47:30;12.70;63.40
22645;DHT22;11489;50.834;6.752;2023-05-29T04:49:59;12.60;63.20
22645;DHT22;11489;50.834;6.752;2023-05-29T04:52:25;12.60;63.30
22645;DHT22;11489;50.834;6.752;2023-05-29T04:54:51;12.60;63.40
22645;DHT22;11489;50.834;6.752;2023-05-29T04:57:17;12.50;63.50
22645;DHT22;11489;50.834;6.752;2023-05-29T04:59:43;12.50;63.70
22645;DHT22;11489;50.834;6.752;2023-05-29T05:02:09;12.50;63.80
22645;DHT22;11489;50.834;6.752;2023-05-29T05:04:34;12.50;63.80
22645;DHT22;11489;50.834;6.752;2023-05-29T05:07:00;12.50;63.80
22645;DHT22;11489;50.834;6.752;2023-05-29T05:09:27;12.50;63.90
22645;DHT22;11489;50.834;6.752;2023-05-29T05:11:53;12.50;64.00
22645;DHT22;11489;50.834;6.752;2023-05-29T05:14:18;12.50;64.30
22645;DHT22;11489;50.834;6.752;2023-05-29T05:16:44;12.50;64.30
22645;DHT22;11489;50.834;6.752;2023-05-29T05:19:10;12.60;64.40
22645;DHT22;11489;50.834;6.752;2023-05-29T05:21:36;12.60;64.40
22645;DHT22;11489;50.834;6.752;2023-05-29T05:24:01;12.60;64.30
22645;DHT22;11489;50.834;6.752;2023-05-29T05:26:27;12.70;64.30
22645;DHT22;11489;50.834;6.752;2023-05-29T05:28:53;12.70;64.20
22645;DHT22;11489;50.834;6.752;2023-05-29T05:31:19;12.70;64.10
22645;DHT22;11489;50.834;6.752;2023-05-29T05:33:44;12.80;64.10
22645;DHT22;11489;50.834;6.752;2023-05-29T05:36:11;12.80;64.00
22645;DHT22;11489;50.834;6.752;2023-05-29T05:38:37;12.80;64.00
22645;DHT22;11489;50.834;6.752;2023-05-29T05:41:02;12.90;64.20
22645;DHT22;11489;50.834;6.752;2023-05-29T05:43:28;12.90;64.10
22645;DHT22;11489;50.834;6.752;2023-05-29T05:45:55;12.90;64.10
22645;DHT22;11489;50.834;6.752;2023-05-29T05:48:21;13.00;64.20
22645;DHT22;11489;50.834;6.752;2023-05-29T05:50:46;13.00;64.30
22645;DHT22;11489;50.834;6.752;2023-05-29T05:53:12;13.00;64.20
22645;DHT22;11489;50.834;6.752;2023-05-29T05:55:38;13.10;64.20
22645;DHT22;11489;50.834;6.752;2023-05-29T05:58:03;13.10;64.20
22645;DHT22;11489;50.834;6.752;2023-05-29T06:00:29;13.20;64.10
22645;DHT22;11489;50.834;6.752;2023-05-29T06:02:55;13.20;64.10
22645;DHT22;11489;50.834;6.752;2023-05-29T06:05:21;13.30;64.10
22645;DHT22;11489;50.834;6.752;2023-05-29T06:07:46;13.40;64.00
22645;DHT22;11489;50.834;6.752;2023-05-29T06:10:12;13.40;64.00
22645;DHT22;11489;50.834;6.752;2023-05-29T06:12:38;13.40;63.90
22645;DHT22;11489;50.834;6.752;2023-05-29T06:15:04;13.50;64.00
22645;DHT22;11489;50.834;6.752;2023-05-29T06:17:31;13.50;63.90
22645;DHT22;11489;50.834;6.752;2023-05-29T06:19:57;13.60;63.80
22645;DHT22;11489;50.834;6.752;2023-05-29T06:22:22;13.60;63.80
22645;DHT22;11489;50.834;6.752;2023-05-29T06:24:48;13.70;63.80
22645;DHT22;11489;50.834;6.752;2023-05-29T06:27:14;13.70;63.70
22645;DHT22;11489;50.834;6.752;2023-05-29T06:29:40;13.70;63.60
22645;DHT22;11489;50.834;6.752;2023-05-29T06:32:06;13.80;63.60
22645;DHT22;11489;50.834;6.752;2023-05-29T06:34:31;13.80;63.60
22645;DHT22;11489;50.834;6.752;2023-05-29T06:36:57;13.90;64.30
22645;DHT22;11489;50.834;6.752;2023-05-29T06:39:23;13.90;63.50
22645;DHT22;11489;50.834;6.752;2023-05-29T06:41:49;14.00;63.50
22645;DHT22;11489;50.834;6.752;2023-05-29T06:44:15;14.00;63.50
22645;DHT22;11489;50.834;6.752;2023-05-29T06:46:40;14.10;63.50
22645;DHT22;11489;50.834;6.752;2023-05-29T06:49:06;14.20;63.40
22645;DHT22;11489;50.834;6.752;2023-05-29T06:51:36;14.20;63.20
22645;DHT22;11489;50.834;6.752;2023-05-29T06:54:02;14.30;63.10
22645;DHT22;11489;50.834;6.752;2023-05-29T06:56:27;14.30;63.10
22645;DHT22;11489;50.834;6.752;2023-05-29T06:58:53;14.40;63.00
22645;DHT22;11489;50.834;6.752;2023-05-29T07:01:19;14.50;62.90
22645;DHT22;11489;50.834;6.752;2023-05-29T07:03:46;14.50;62.90
22645;DHT22;11489;50.834;6.752;2023-05-29T07:06:12;14.60;62.80
22645;DHT22;11489;50.834;6.752;2023-05-29T07:08:37;14.60;62.60
22645;DHT22;11489;50.834;6.752;2023-05-29T07:11:03;14.70;62.40
22645;DHT22;11489;50.834;6.752;2023-05-29T07:13:29;14.70;62.30
22645;DHT22;11489;50.834;6.752;2023-05-29T07:15:55;14.70;62.30
22645;DHT22;11489;50.834;6.752;2023-05-29T07:18:20;14.70;62.40
22645;DHT22;11489;50.834;6.752;2023-05-29T07:20:46;14.80;62.40
22645;DHT22;11489;50.834;6.752;2023-05-29T07:23:12;14.80;62.30
22645;DHT22;11489;50.834;6.752;2023-05-29T07:25:37;14.90;62.30
22645;DHT22;11489;50.834;6.752;2023-05-29T07:28:03;14.90;62.20
22645;DHT22;11489;50.834;6.752;2023-05-29T07:30:28;15.00;62.20
22645;DHT22;11489;50.834;6.752;2023-05-29T07:32:54;15.00;62.00
22645;DHT22;11489;50.834;6.752;2023-05-29T07:35:20;15.00;63.10
22645;DHT22;11489;50.834;6.752;2023-05-29T07:37:47;15.10;62.80
22645;DHT22;11489;50.834;6.752;2023-05-29T07:40:15;15.20;62.60
22645;DHT22;11489;50.834;6.752;2023-05-29T07:42:40;15.30;62.60
22645;DHT22;11489;50.834;6.752;2023-05-29T07:45:07;15.40;62.60
22645;DHT22;11489;50.834;6.752;2023-05-29T07:47:32;15.60;62.70
22645;DHT22;11489;50.834;6.752;2023-05-29T07:49:58;15.70;62.30
22645;DHT22;11489;50.834;6.752;2023-05-29T07:52:24;15.80;62.10
22645;DHT22;11489;50.834;6.752;2023-05-29T07:54:49;15.90;62.10
22645;DHT22;11489;50.834;6.752;2023-05-29T07:57:15;16.10;62.20
22645;DHT22;11489;50.834;6.752;2023-05-29T07:59:41;16.20;61.70
22645;DHT22;11489;50.834;6.752;2023-05-29T08:02:07;16.30;61.40
22645;DHT22;11489;50.834;6.752;2023-05-29T08:04:34;16.40;61.20
22645;DHT22;11489;50.834;6.752;2023-05-29T08:07:03;16.50;61.10
22645;DHT22;11489;50.834;6.752;2023-05-29T08:09:32;16.60;60.80
22645;DHT22;11489;50.834;6.752;2023-05-29T08:11:57;16.70;60.40
22645;DHT22;11489;50.834;6.752;2023-05-29T08:14:25;16.80;60.10
22645;DHT22;11489;50.834;6.752;2023-05-29T08:16:51;16.80;60.00
22645;DHT22;11489;50.834;6.752;2023-05-29T08:19:17;16.90;59.80
22645;DHT22;11489;50.834;6.752;2023-05-29T08:21:42;16.90;59.60
22645;DHT22;11489;50.834;6.752;2023-05-29T08:24:08;17.00;59.80
22645;DHT22;11489;50.834;6.752;2023-05-29T08:26:34;17.00;59.50
22645;DHT22;11489;50.834;6.752;2023-05-29T08:29:00;17.10;59.60
22645;DHT22;11489;50.834;6.752;2023-05-29T08:31:26;17.20;59.40
22645;DHT22;11489;50.834;6.752;2023-05-29T08:33:53;17.30;59.30
22645;DHT22;11489;50.834;6.752;2023-05-29T08:36:19;17.40;59.10
22645;DHT22;11489;50.834;6.752;2023-05-29T08:38:49;17.40;59.10
22645;DHT22;11489;50.834;6.752;2023-05-29T08:41:21;17.50;59.20
22645;DHT22;11489;50.834;6.752;2023-05-29T08:43:52;17.60;59.00
22645;DHT22;11489;50.834;6.752;2023-05-29T08:46:18;17.70;58.80
22645;DHT22;11489;50.834;6.752;2023-05-29T08:48:49;17.80;58.60
22645;DHT22;11489;50.834;6.752;2023-05-29T08:51:20;18.00;58.50
22645;DHT22;11489;50.834;6.752;2023-05-29T08:53:47;18.00;58.50
22645;DHT22;11489;50.834;6.752;2023-05-29T08:56:12;18.10;58.30
22645;DHT22;11489;50.834;6.752;2023-05-29T08:58:38;18.30;58.50
22645;DHT22;11489;50.834;6.752;2023-05-29T09:01:05;18.40;58.30
22645;DHT22;11489;50.834;6.752;2023-05-29T09:03:30;18.60;58.20
22645;DHT22;11489;50.834;6.752;2023-05-29T09:05:59;18.70;58.00
22645;DHT22;11489;50.834;6.752;2023-05-29T09:08:29;18.80;57.70
22645;DHT22;11489;50.834;6.752;2023-05-29T09:10:55;18.90;56.90
22645;DHT22;11489;50.834;6.752;2023-05-29T09:13:22;19.00;57.10
22645;DHT22;11489;50.834;6.752;2023-05-29T09:15:48;19.00;56.90
22645;DHT22;11489;50.834;6.752;2023-05-29T09:18:17;19.10;56.50
22645;DHT22;11489;50.834;6.752;2023-05-29T09:20:43;19.20;56.40
22645;DHT22;11489;50.834;6.752;2023-05-29T09:23:09;19.30;56.00
22645;DHT22;11489;50.834;6.752;2023-05-29T09:25:39;19.30;56.20
22645;DHT22;11489;50.834;6.752;2023-05-29T09:28:07;19.40;56.20
22645;DHT22;11489;50.834;6.752;2023-05-29T09:30:44;19.50;56.10
22645;DHT22;11489;50.834;6.752;2023-05-29T09:33:11;19.60;55.70
22645;DHT22;11489;50.834;6.752;2023-05-29T09:35:45;19.60;55.50
22645;DHT22;11489;50.834;6.752;2023-05-29T09:38:13;19.70;55.20
22645;DHT22;11489;50.834;6.752;2023-05-29T09:40:40;19.70;55.20
22645;DHT22;11489;50.834;6.752;2023-05-29T09:43:12;19.80;55.30
22645;DHT22;11489;50.834;6.752;2023-05-29T09:45:41;19.90;55.00
22645;DHT22;11489;50.834;6.752;2023-05-29T09:48:08;19.90;54.80
22645;DHT22;11489;50.834;6.752;2023-05-29T09:50:37;19.90;54.70
22645;DHT22;11489;50.834;6.752;2023-05-29T09:53:03;20.00;55.00
22645;DHT22;11489;50.834;6.752;2023-05-29T09:55:31;20.10;54.90
22645;DHT22;11489;50.834;6.752;2023-05-29T09:57:57;20.30;54.70
22645;DHT22;11489;50.834;6.752;2023-05-29T10:00:24;20.40;54.30
22645;DHT22;11489;50.834;6.752;2023-05-29T10:02:50;20.40;54.00
22645;DHT22;11489;50.834;6.752;2023-05-29T10:05:16;20.50;53.80
22645;DHT22;11489;50.834;6.752;2023-05-29T10:07:46;20.50;53.70
22645;DHT22;11489;50.834;6.752;2023-05-29T10:10:16;20.50;53.10
22645;DHT22;11489;50.834;6.752;2023-05-29T10:12:50;20.50;53.20
22645;DHT22;11489;50.834;6.752;2023-05-29T10:15:16;20.50;53.10
22645;DHT22;11489;50.834;6.752;2023-05-29T10:17:57;20.50;53.40
22645;DHT22;11489;50.834;6.752;2023-05-29T10:20:26;20.50;53.10
22645;DHT22;11489;50.834;6.752;2023-05-29T10:22:56;20.60;53.40
22645;DHT22;11489;50.834;6.752;2023-05-29T10:25:27;20.60;53.50
22645;DHT22;11489;50.834;6.752;2023-05-29T10:27:55;20.70;53.60
22645;DHT22;11489;50.834;6.752;2023-05-29T10:30:36;20.80;53.20
22645;DHT22;11489;50.834;6.752;2023-05-29T10:36:14;20.90;52.60
22645;DHT22;11489;50.834;6.752;2023-05-29T10:38:46;20.90;52.80
22645;DHT22;11489;50.834;6.752;2023-05-29T10:44:03;21.00;52.50
22645;DHT22;11489;50.834;6.752;2023-05-29T10:51:42;21.00;52.20
22645;DHT22;11489;50.834;6.752;2023-05-29T10:54:07;21.00;52.50
22645;DHT22;11489;50.834;6.752;2023-05-29T10:56:33;21.10;52.70
22645;DHT22;11489;50.834;6.752;2023-05-29T10:58:59;21.20;52.00
22645;DHT22;11489;50.834;6.752;2023-05-29T11:01:29;21.20;51.90
22645;DHT22;11489;50.834;6.752;2023-05-29T11:06:43;21.30;51.80
22645;DHT22;11489;50.834;6.752;2023-05-29T11:09:35;21.40;52.00
22645;DHT22;11489;50.834;6.752;2023-05-29T11:12:24;21.40;51.50
22645;DHT22;11489;50.834;6.752;2023-05-29T11:15:06;21.40;51.00
22645;DHT22;11489;50.834;6.752;2023-05-29T11:20:35;21.40;51.50
22645;DHT22;11489;50.834;6.752;2023-05-29T11:23:03;21.50;51.30
22645;DHT22;11489;50.834;6.752;2023-05-29T11:25:36;21.50;51.60
22645;DHT22;11489;50.834;6.752;2023-05-29T11:28:05;21.60;51.50
22645;DHT22;11489;50.834;6.752;2023-05-29T11:30:45;21.70;51.20
22645;DHT22;11489;50.834;6.752;2023-05-29T11:33:25;21.80;51.20
22645;DHT22;11489;50.834;6.752;2023-05-29T11:35:57;21.80;51.00
22645;DHT22;11489;50.834;6.752;2023-05-29T11:38:24;21.90;51.10
22645;DHT22;11489;50.834;6.752;2023-05-29T11:40:50;22.00;51.00
22645;DHT22;11489;50.834;6.752;2023-05-29T11:43:16;22.00;50.60
22645;DHT22;11489;50.834;6.752;2023-05-29T11:45:41;22.00;50.70
22645;DHT22;11489;50.834;6.752;2023-05-29T11:48:07;22.10;50.80
22645;DHT22;11489;50.834;6.752;2023-05-29T11:50:33;22.20;50.50
22645;DHT22;11489;50.834;6.752;2023-05-29T11:53:00;22.20;50.10
22645;DHT22;11489;50.834;6.752;2023-05-29T11:55:27;22.20;49.70
22645;DHT22;11489;50.834;6.752;2023-05-29T11:57:58;22.20;49.90
22645;DHT22;11489;50.834;6.752;2023-05-29T12:00:24;22.30;49.80
22645;DHT22;11489;50.834;6.752;2023-05-29T12:02:50;22.30;49.60
22645;DHT22;11489;50.834;6.752;2023-05-29T12:05:17;22.30;49.60
22645;DHT22;11489;50.834;6.752;2023-05-29T12:07:54;22.30;50.20
22645;DHT22;11489;50.834;6.752;2023-05-29T12:10:23;22.40;49.50
22645;DHT22;11489;50.834;6.752;2023-05-29T12:12:59;22.40;49.60
22645;DHT22;11489;50.834;6.752;2023-05-29T12:15:27;22.50;49.70
22645;DHT22;11489;50.834;6.752;2023-05-29T12:17:53;22.50;49.40
22645;DHT22;11489;50.834;6.752;2023-05-29T12:20:22;22.60;49.40
22645;DHT22;11489;50.834;6.752;2023-05-29T12:22:49;22.70;49.30
22645;DHT22;11489;50.834;6.752;2023-05-29T12:25:21;22.70;49.00
22645;DHT22;11489;50.834;6.752;2023-05-29T12:27:48;22.70;49.10
22645;DHT22;11489;50.834;6.752;2023-05-29T12:32:45;22.70;48.60
22645;DHT22;11489;50.834;6.752;2023-05-29T12:35:17;22.70;48.60
22645;DHT22;11489;50.834;6.752;2023-05-29T12:38:00;22.80;48.50
22645;DHT22;11489;50.834;6.752;2023-05-29T12:40:30;22.80;48.50
22645;DHT22;11489;50.834;6.752;2023-05-29T12:42:58;22.80;48.00
22645;DHT22;11489;50.834;6.752;2023-05-29T12:45:26;22.90;48.10
22645;DHT22;11489;50.834;6.752;2023-05-29T12:47:57;22.90;48.50
22645;DHT22;11489;50.834;6.752;2023-05-29T12:50:28;23.00;48.50
22645;DHT22;11489;50.834;6.752;2023-05-29T12:53:08;23.10;48.20
22645;DHT22;11489;50.834;6.752;2023-05-29T12:55:35;23.10;47.50
22645;DHT22;11489;50.834;6.752;2023-05-29T12:58:05;23.10;47.50
22645;DHT22;11489;50.834;6.752;2023-05-29T13:00:35;23.10;47.80
22645;DHT22;11489;50.834;6.752;2023-05-29T13:03:02;23.10;47.90
22645;DHT22;11489;50.834;6.752;2023-05-29T13:05:28;23.20;47.60
22645;DHT22;11489;50.834;6.752;2023-05-29T13:07:54;23.10;47.10
22645;DHT22;11489;50.834;6.752;2023-05-29T13:10:20;23.10;47.10
22645;DHT22;11489;50.834;6.752;2023-05-29T13:12:48;23.10;47.20
22645;DHT22;11489;50.834;6.752;2023-05-29T13:15:15;23.00;47.10
22645;DHT22;11489;50.834;6.752;2023-05-29T13:17:41;23.00;47.10
22645;DHT22;11489;50.834;6.752;2023-05-29T13:20:11;22.90;47.30
22645;DHT22;11489;50.834;6.752;2023-05-29T13:22:41;22.90;47.10
22645;DHT22;11489;50.834;6.752;2023-05-29T13:25:10;22.90;47.60
22645;DHT22;11489;50.834;6.752;2023-05-29T13:27:38;22.90;47.40
22645;DHT22;11489;50.834;6.752;2023-05-29T13:30:05;23.00;47.30
22645;DHT22;11489;50.834;6.752;2023-05-29T13:32:32;23.00;47.50
22645;DHT22;11489;50.834;6.752;2023-05-29T13:34:57;23.10;47.10
22645;DHT22;11489;50.834;6.752;2023-05-29T13:37:24;23.10;47.10
22645;DHT22;11489;50.834;6.752;2023-05-29T13:39:49;23.10;46.80
22645;DHT22;11489;50.834;6.752;2023-05-29T13:42:17;23.10;46.50
22645;DHT22;11489;50.834;6.752;2023-05-29T13:44:43;23.10;46.20
22645;DHT22;11489;50.834;6.752;2023-05-29T13:47:08;23.10;46.40
22645;DHT22;11489;50.834;6.752;2023-05-29T13:49:34;23.00;46.60
22645;DHT22;11489;50.834;6.752;2023-05-29T13:52:02;23.00;46.40
22645;DHT22;11489;50.834;6.752;2023-05-29T13:54:27;23.00;46.60
22645;DHT22;11489;50.834;6.752;2023-05-29T13:56:58;23.00;46.60
22645;DHT22;11489;50.834;6.752;2023-05-29T13:59:24;22.90;46.50
22645;DHT22;11489;50.834;6.752;2023-05-29T14:01:50;23.00;46.60
22645;DHT22;11489;50.834;6.752;2023-05-29T14:04:16;23.00;46.80
22645;DHT22;11489;50.834;6.752;2023-05-29T14:06:42;23.10;46.60
22645;DHT22;11489;50.834;6.752;2023-05-29T14:09:07;23.10;46.40
22645;DHT22;11489;50.834;6.752;2023-05-29T14:11:36;23.10;46.30
22645;DHT22;11489;50.834;6.752;2023-05-29T14:14:06;23.20;46.30
22645;DHT22;11489;50.834;6.752;2023-05-29T14:16:32;23.20;46.20
22645;DHT22;11489;50.834;6.752;2023-05-29T14:18:59;23.20;46.10
22645;DHT22;11489;50.834;6.752;2023-05-29T14:21:25;23.20;45.70
22645;DHT22;11489;50.834;6.752;2023-05-29T14:23:51;23.20;45.80
22645;DHT22;11489;50.834;6.752;2023-05-29T14:26:17;23.20;45.70
22645;DHT22;11489;50.834;6.752;2023-05-29T14:28:44;23.30;45.90
22645;DHT22;11489;50.834;6.752;2023-05-29T14:31:09;23.30;45.70
22645;DHT22;11489;50.834;6.752;2023-05-29T14:33:35;23.30;46.00
22645;DHT22;11489;50.834;6.752;2023-05-29T14:36:03;23.40;45.70
22645;DHT22;11489;50.834;6.752;2023-05-29T14:38:29;23.40;45.30
22645;DHT22;11489;50.834;6.752;2023-05-29T14:40:55;23.40;45.30
22645;DHT22;11489;50.834;6.752;2023-05-29T14:43:21;23.40;45.10
22645;DHT22;11489;50.834;6.752;2023-05-29T14:45:47;23.30;44.90
22645;DHT22;11489;50.834;6.752;2023-05-29T14:48:12;23.30;44.80
22645;DHT22;11489;50.834;6.752;2023-05-29T14:50:38;23.20;44.80
22645;DHT22;11489;50.834;6.752;2023-05-29T14:53:04;23.10;44.90
22645;DHT22;11489;50.834;6.752;2023-05-29T14:55:30;23.10;45.20
22645;DHT22;11489;50.834;6.752;2023-05-29T14:58:03;23.10;45.50
22645;DHT22;11489;50.834;6.752;2023-05-29T15:00:29;23.10;45.60
22645;DHT22;11489;50.834;6.752;2023-05-29T15:02:55;23.10;45.40
22645;DHT22;11489;50.834;6.752;2023-05-29T15:05:25;23.10;45.20
22645;DHT22;11489;50.834;6.752;2023-05-29T15:07:51;23.10;44.90
22645;DHT22;11489;50.834;6.752;2023-05-29T15:10:17;23.10;45.20
22645;DHT22;11489;50.834;6.752;2023-05-29T15:12:45;23.10;45.20
22645;DHT22;11489;50.834;6.752;2023-05-29T15:15:11;23.20;45.00
22645;DHT22;11489;50.834;6.752;2023-05-29T15:17:37;23.20;45.10
22645;DHT22;11489;50.834;6.752;2023-05-29T15:20:04;23.10;44.90
22645;DHT22;11489;50.834;6.752;2023-05-29T15:22:31;23.10;44.50
22645;DHT22;11489;50.834;6.752;2023-05-29T15:24:56;23.00;44.40
22645;DHT22;11489;50.834;6.752;2023-05-29T15:27:22;22.90;44.50
22645;DHT22;11489;50.834;6.752;2023-05-29T15:29:52;22.80;44.80
22645;DHT22;11489;50.834;6.752;2023-05-29T15:32:18;22.70;44.90
22645;DHT22;11489;50.834;6.752;2023-05-29T15:34:44;22.70;45.00
22645;DHT22;11489;50.834;6.752;2023-05-29T15:37:09;22.60;45.10
22645;DHT22;11489;50.834;6.752;2023-05-29T15:39:35;22.50;45.10
22645;DHT22;11489;50.834;6.752;2023-05-29T15:42:03;22.50;45.10
22645;DHT22;11489;50.834;6.752;2023-05-29T15:44:29;22.50;45.30
22645;DHT22;11489;50.834;6.752;2023-05-29T15:46:55;22.40;45.30
22645;DHT22;11489;50.834;6.752;2023-05-29T15:49:20;22.30;45.40
22645;DHT22;11489;50.834;6.752;2023-05-29T15:51:46;22.30;45.20